CDT,Max TemperatureF,Mean TemperatureF,Min TemperatureF,Max Dew PointF,MeanDew PointF,Min DewpointF,Max Humidity, Mean Humidity, Min Humidity, Max Sea Level PressureIn, Mean Sea Level PressureIn, Min Sea Level PressureIn, Max VisibilityMiles, Mean VisibilityMiles, Min VisibilityMiles, Max Wind SpeedMPH, Mean Wind SpeedMPH, Max Gust SpeedMPH,PrecipitationIn, CloudCover, Events, WindDirDegrees
2011-9-1,100,90,79,53,51,46,38,26,18,29.96,29.89,29.84,10,10,10,21,17,30,0.00,0,,185
2011-9-2,99,87,75,58,51,48,43,30,18,29.91,29.85,29.78,10,10,10,18,12,28,0.00,0,,173
2011-9-3,98,86,75,64,56,53,64,38,23,29.88,29.81,29.74,10,10,10,21,11,31,0.00,0,,159
2011-9-4,81,70,61,65,50,34,87,54,23,30.15,30.05,29.91,10,10,9,31,21,37,0.00,3,Rain,11
2011-9-5,79,66,53,42,35,28,66,33,15,30.19,30.12,30.05,10,10,10,17,11,25,0.00,0,,27
2011-9-6,84,69,54,40,35,33,49,32,16,30.15,30.09,30.03,10,10,10,10,6,,0.00,0,,119
2011-9-7,80,66,55,38,36,33,51,30,19,30.24,30.19,30.10,10,10,10,13,8,,0.00,1,,42
2011-9-8,88,75,63,50,44,41,58,37,20,30.23,30.15,30.01,10,10,10,14,6,18,0.00,0,,2
2011-9-9,82,68,54,44,38,32,57,36,17,30.14,30.08,30.01,10,10,10,21,8,26,0.00,0,,351
2011-9-10,88,71,55,50,39,33,55,34,16,30.10,30.05,29.99,10,10,7,16,6,24,0.00,0,,342
2011-9-11,90,74,59,51,47,44,67,41,21,30.14,30.08,30.03,10,10,10,12,5,,0.00,0,,12
2011-9-12,102,83,66,46,43,40,47,29,13,30.08,29.97,29.86,10,10,10,23,11,30,0.00,0,,183
2011-9-13,102,82,66,59,45,39,57,29,13,29.96,29.86,29.82,10,10,9,24,9,31,0.00,1,Rain-Thunderstorm,242
2011-9-14,81,70,61,60,54,46,81,56,32,30.17,30.00,29.83,10,10,0,23,17,30,0.13,2,Rain-Thunderstorm,30
2011-9-15,66,58,51,52,49,45,94,84,45,30.31,30.24,30.18,10,8,2,20,14,24,0.11,8,Rain,67
2011-9-16,73,62,51,59,49,20,89,72,17,30.18,30.10,29.99,10,10,8,15,8,22,0.00,6,Rain,129
2011-9-17,91,78,64,66,60,45,84,64,34,30.06,29.93,29.77,10,8,2,25,16,32,0.00,5,Rain-Thunderstorm,177
2011-9-18,88,76,63,63,54,39,87,54,18,30.05,29.95,29.83,10,10,10,25,18,32,0.00,1,,339
2011-9-19,88,71,55,54,43,34,89,44,15,30.17,30.09,30.02,10,10,8,14,7,20,0.00,0,,41
2011-9-20,90,76,62,48,39,-7,58,34,4,30.02,29.95,29.86,10,10,10,20,12,26,0.00,0,,171
2011-9-21,81,71,62,51,41,14,65,41,11,30.14,30.05,29.95,10,10,10,23,15,32,0.00,1,,38
2011-9-22,71,60,51,52,48,38,94,75,39,30.29,30.22,30.14,10,9,3,24,13,29,0.37,5,Rain-Thunderstorm,33
2011-9-23,86,68,52,56,50,46,86,58,26,30.17,30.07,29.96,10,10,10,23,10,26,0.00,0,,203
2011-9-24,91,74,57,54,47,35,81,44,15,29.97,29.82,29.68,10,10,10,14,8,18,0.00,0,,207
2011-9-25,79,66,55,54,46,41,80,49,27,29.86,29.80,29.68,10,10,10,22,13,26,0.00,0,,30
2011-9-26,82,68,55,48,43,40,59,41,23,29.95,29.88,29.82,10,10,10,16,9,,0.00,0,,142
2011-9-27,87,74,60,49,47,46,64,43,24,29.99,29.94,29.88,10,10,10,13,7,18,0.00,0,,92
2011-9-28,93,76,60,52,49,47,67,41,20,29.96,29.89,29.80,10,10,10,17,9,23,0.00,0,,199
2011-9-29,91,77,64,52,45,32,61,35,20,30.19,29.97,29.83,10,10,10,30,14,37,0.00,1,,20
2011-9-30,78,64,52,34,29,25,45,28,15,30.32,30.24,30.15,10,10,10,14,10,20,0.00,0,,30